sensor_id;sensor_type;location;lat;lon;timestamp;P1;durP1;ratioP1;P2;durP2;ratioP2
73487;SDS011;61721;42.206;25.320;2024-01-15T00:00:25;12.85;;;7.00;;
73487;SDS011;61721;42.206;25.320;2024-01-15T00:02:52;13.55;;;7.43;;
73487;SDS011;61721;42.206;25.320;2024-01-15T00:05:20;14.88;;;7.28;;
73487;SDS011;61721;42.206;25.320;2024-01-15T00:07:48;17.15;;;8.68;;
73487;SDS011;61721;42.206;25.320;2024-01-15T00:10:16;17.58;;;8.55;;
73487;SDS011;61721;42.206;25.320;2024-01-15T00:12:43;15.00;;;8.40;;
73487;SDS011;61721;42.206;25.320;2024-01-15T00:15:11;14.75;;;6.95;;
73487;SDS011;61721;42.206;25.320;2024-01-15T00:17:38;16.73;;;9.00;;
73487;SDS011;61721;42.206;25.320;2024-01-15T00:20:13;12.63;;;7.47;;
73487;SDS011;61721;42.206;25.320;2024-01-15T00:22:49;13.05;;;6.80;;
73487;SDS011;61721;42.206;25.320;2024-01-15T00:25:16;18.35;;;9.68;;
73487;SDS011;61721;42.206;25.320;2024-01-15T00:27:43;18.58;;;9.75;;
73487;SDS011;61721;42.206;25.320;2024-01-15T00:30:11;17.83;;;9.30;;
73487;SDS011;61721;42.206;25.320;2024-01-15T00:32:39;16.63;;;8.63;;
73487;SDS011;61721;42.206;25.320;2024-01-15T00:35:07;14.88;;;7.78;;
73487;SDS011;61721;42.206;25.320;2024-01-15T00:37:34;13.05;;;7.93;;
73487;SDS011;61721;42.206;25.320;2024-01-15T00:40:04;12.93;;;7.35;;
73487;SDS011;61721;42.206;25.320;2024-01-15T00:42:33;13.50;;;7.90;;
73487;SDS011;61721;42.206;25.320;2024-01-15T00:45:00;17.17;;;9.15;;
73487;SDS011;61721;42.206;25.320;2024-01-15T00:47:28;22.40;;;11.93;;
73487;SDS011;61721;42.206;25.320;2024-01-15T00:49:55;16.05;;;9.93;;
73487;SDS011;61721;42.206;25.320;2024-01-15T00:52:22;15.02;;;10.43;;
73487;SDS011;61721;42.206;25.320;2024-01-15T00:54:50;14.82;;;9.02;;
73487;SDS011;61721;42.206;25.320;2024-01-15T00:57:19;14.55;;;6.75;;
73487;SDS011;61721;42.206;25.320;2024-01-15T00:59:46;12.23;;;8.07;;
73487;SDS011;61721;42.206;25.320;2024-01-15T01:02:14;11.15;;;6.95;;
73487;SDS011;61721;42.206;25.320;2024-01-15T01:04:41;9.65;;;6.30;;
73487;SDS011;61721;42.206;25.320;2024-01-15T01:07:08;14.23;;;7.30;;
73487;SDS011;61721;42.206;25.320;2024-01-15T01:09:35;17.77;;;8.35;;
73487;SDS011;61721;42.206;25.320;2024-01-15T01:12:03;17.55;;;10.30;;
73487;SDS011;61721;42.206;25.320;2024-01-15T01:14:32;17.73;;;10.90;;
73487;SDS011;61721;42.206;25.320;2024-01-15T01:16:59;21.05;;;11.93;;
73487;SDS011;61721;42.206;25.320;2024-01-15T01:19:27;18.50;;;9.77;;
73487;SDS011;61721;42.206;25.320;2024-01-15T01:22:03;19.02;;;10.57;;
73487;SDS011;61721;42.206;25.320;2024-01-15T01:24:31;14.77;;;8.85;;
73487;SDS011;61721;42.206;25.320;2024-01-15T01:26:58;20.30;;;10.88;;
73487;SDS011;61721;42.206;25.320;2024-01-15T01:29:25;21.20;;;12.93;;
73487;SDS011;61721;42.206;25.320;2024-01-15T01:31:54;18.15;;;10.63;;
73487;SDS011;61721;42.206;25.320;2024-01-15T01:34:21;16.48;;;10.27;;
73487;SDS011;61721;42.206;25.320;2024-01-15T01:36:49;19.17;;;10.35;;
73487;SDS011;61721;42.206;25.320;2024-01-15T01:39:16;17.10;;;10.43;;
73487;SDS011;61721;42.206;25.320;2024-01-15T01:41:44;20.83;;;11.68;;
73487;SDS011;61721;42.206;25.320;2024-01-15T01:44:11;18.50;;;10.45;;
73487;SDS011;61721;42.206;25.320;2024-01-15T01:46:38;16.20;;;10.52;;
73487;SDS011;61721;42.206;25.320;2024-01-15T01:49:07;20.15;;;11.02;;
73487;SDS011;61721;42.206;25.320;2024-01-15T01:51:36;18.83;;;11.00;;
73487;SDS011;61721;42.206;25.320;2024-01-15T01:54:05;19.70;;;11.52;;
73487;SDS011;61721;42.206;25.320;2024-01-15T01:56:34;18.55;;;9.73;;
73487;SDS011;61721;42.206;25.320;2024-01-15T01:59:02;15.68;;;9.00;;
73487;SDS011;61721;42.206;25.320;2024-01-15T02:01:30;15.27;;;8.98;;
73487;SDS011;61721;42.206;25.320;2024-01-15T02:03:58;13.40;;;7.70;;
73487;SDS011;61721;42.206;25.320;2024-01-15T02:06:28;14.15;;;7.55;;
73487;SDS011;61721;42.206;25.320;2024-01-15T02:08:55;12.80;;;7.35;;
73487;SDS011;61721;42.206;25.320;2024-01-15T02:11:22;12.95;;;6.85;;
73487;SDS011;61721;42.206;25.320;2024-01-15T02:13:50;12.05;;;6.90;;
73487;SDS011;61721;42.206;25.320;2024-01-15T02:16:18;10.52;;;6.85;;
73487;SDS011;61721;42.206;25.320;2024-01-15T02:18:45;12.02;;;7.25;;
73487;SDS011;61721;42.206;25.320;2024-01-15T02:21:13;11.45;;;6.22;;
73487;SDS011;61721;42.206;25.320;2024-01-15T02:23:42;8.73;;;4.85;;
73487;SDS011;61721;42.206;25.320;2024-01-15T02:26:09;10.82;;;6.07;;
73487;SDS011;61721;42.206;25.320;2024-01-15T02:28:36;10.88;;;6.30;;
73487;SDS011;61721;42.206;25.320;2024-01-15T02:31:04;10.32;;;6.10;;
73487;SDS011;61721;42.206;25.320;2024-01-15T02:33:31;11.15;;;7.47;;
73487;SDS011;61721;42.206;25.320;2024-01-15T02:35:58;12.80;;;6.68;;
73487;SDS011;61721;42.206;25.320;2024-01-15T02:38:26;11.23;;;7.07;;
73487;SDS011;61721;42.206;25.320;2024-01-15T02:40:55;13.63;;;6.35;;
73487;SDS011;61721;42.206;25.320;2024-01-15T02:43:22;14.63;;;9.38;;
73487;SDS011;61721;42.206;25.320;2024-01-15T02:45:49;19.83;;;9.68;;
73487;SDS011;61721;42.206;25.320;2024-01-15T02:48:17;20.23;;;9.52;;
73487;SDS011;61721;42.206;25.320;2024-01-15T02:50:45;18.60;;;9.93;;
73487;SDS011;61721;42.206;25.320;2024-01-15T02:53:12;15.07;;;8.00;;
73487;SDS011;61721;42.206;25.320;2024-01-15T02:55:39;14.80;;;8.23;;
73487;SDS011;61721;42.206;25.320;2024-01-15T02:58:08;15.23;;;8.43;;
73487;SDS011;61721;42.206;25.320;2024-01-15T03:00:35;17.77;;;8.35;;
73487;SDS011;61721;42.206;25.320;2024-01-15T03:03:03;12.15;;;7.22;;
73487;SDS011;61721;42.206;25.320;2024-01-15T03:05:30;14.45;;;6.90;;
73487;SDS011;61721;42.206;25.320;2024-01-15T03:07:58;11.23;;;6.95;;
73487;SDS011;61721;42.206;25.320;2024-01-15T03:10:25;14.68;;;7.40;;
73487;SDS011;61721;42.206;25.320;2024-01-15T03:12:53;13.48;;;7.30;;
73487;SDS011;61721;42.206;25.320;2024-01-15T03:15:22;13.70;;;7.88;;
73487;SDS011;61721;42.206;25.320;2024-01-15T03:17:49;10.60;;;7.03;;
73487;SDS011;61721;42.206;25.320;2024-01-15T03:20:16;12.02;;;7.05;;
73487;SDS011;61721;42.206;25.320;2024-01-15T03:22:44;14.70;;;6.70;;
73487;SDS011;61721;42.206;25.320;2024-01-15T03:25:11;15.30;;;9.40;;
73487;SDS011;61721;42.206;25.320;2024-01-15T03:27:38;15.52;;;8.75;;
73487;SDS011;61721;42.206;25.320;2024-01-15T03:30:06;13.98;;;8.23;;
73487;SDS011;61721;42.206;25.320;2024-01-15T03:32:36;13.50;;;8.27;;
73487;SDS011;61721;42.206;25.320;2024-01-15T03:35:03;13.65;;;7.88;;
73487;SDS011;61721;42.206;25.320;2024-01-15T03:37:31;12.82;;;7.97;;
73487;SDS011;61721;42.206;25.320;2024-01-15T03:39:59;11.27;;;6.82;;
73487;SDS011;61721;42.206;25.320;2024-01-15T03:42:26;13.93;;;7.70;;
73487;SDS011;61721;42.206;25.320;2024-01-15T03:44:54;12.23;;;7.65;;
73487;SDS011;61721;42.206;25.320;2024-01-15T03:47:21;15.32;;;9.23;;
73487;SDS011;61721;42.206;25.320;2024-01-15T03:49:50;14.55;;;8.38;;
73487;SDS011;61721;42.206;25.320;2024-01-15T03:52:17;15.80;;;9.20;;
73487;SDS011;61721;42.206;25.320;2024-01-15T03:54:45;11.20;;;7.38;;
73487;SDS011;61721;42.206;25.320;2024-01-15T03:57:12;14.10;;;9.10;;
73487;SDS011;61721;42.206;25.320;2024-01-15T03:59:40;17.70;;;10.25;;
73487;SDS011;61721;42.206;25.320;2024-01-15T04:02:08;17.50;;;9.93;;
73487;SDS011;61721;42.206;25.320;2024-01-15T04:04:35;20.55;;;12.38;;
73487;SDS011;61721;42.206;25.320;2024-01-15T04:07:04;17.02;;;10.48;;
73487;SDS011;61721;42.206;25.320;2024-01-15T04:09:31;25.45;;;11.85;;
73487;SDS011;61721;42.206;25.320;2024-01-15T04:11:59;19.95;;;10.77;;
73487;SDS011;61721;42.206;25.320;2024-01-15T04:14:26;17.65;;;10.18;;
73487;SDS011;61721;42.206;25.320;2024-01-15T04:16:54;17.35;;;9.90;;
73487;SDS011;61721;42.206;25.320;2024-01-15T04:19:21;18.63;;;11.05;;
73487;SDS011;61721;42.206;25.320;2024-01-15T04:21:48;18.92;;;11.30;;
73487;SDS011;61721;42.206;25.320;2024-01-15T04:24:17;14.70;;;9.35;;
73487;SDS011;61721;42.206;25.320;2024-01-15T04:26:44;16.52;;;9.50;;
73487;SDS011;61721;42.206;25.320;2024-01-15T04:29:12;19.63;;;8.35;;
73487;SDS011;61721;42.206;25.320;2024-01-15T04:31:39;17.42;;;7.25;;
73487;SDS011;61721;42.206;25.320;2024-01-15T04:34:07;12.07;;;7.28;;
73487;SDS011;61721;42.206;25.320;2024-01-15T04:36:38;12.15;;;7.03;;
73487;SDS011;61721;42.206;25.320;2024-01-15T04:39:06;14.48;;;6.93;;
73487;SDS011;61721;42.206;25.320;2024-01-15T04:41:35;11.43;;;6.53;;
73487;SDS011;61721;42.206;25.320;2024-01-15T04:44:02;14.00;;;7.90;;
73487;SDS011;61721;42.206;25.320;2024-01-15T04:46:29;11.43;;;7.47;;
73487;SDS011;61721;42.206;25.320;2024-01-15T04:48:57;14.90;;;7.70;;
73487;SDS011;61721;42.206;25.320;2024-01-15T04:51:24;13.50;;;7.00;;
73487;SDS011;61721;42.206;25.320;2024-01-15T04:53:51;12.02;;;7.05;;
73487;SDS011;61721;42.206;25.320;2024-01-15T04:56:19;14.82;;;8.57;;
73487;SDS011;61721;42.206;25.320;2024-01-15T04:58:48;11.50;;;7.57;;
73487;SDS011;61721;42.206;25.320;2024-01-15T05:01:15;16.73;;;7.80;;
73487;SDS011;61721;42.206;25.320;2024-01-15T05:03:42;11.98;;;8.02;;
73487;SDS011;61721;42.206;25.320;2024-01-15T05:06:10;14.65;;;8.27;;
73487;SDS011;61721;42.206;25.320;2024-01-15T05:08:37;16.42;;;9.68;;
73487;SDS011;61721;42.206;25.320;2024-01-15T05:11:04;17.20;;;9.32;;
73487;SDS011;61721;42.206;25.320;2024-01-15T05:13:32;13.48;;;8.00;;
73487;SDS011;61721;42.206;25.320;2024-01-15T05:16:01;20.33;;;9.40;;
73487;SDS011;61721;42.206;25.320;2024-01-15T05:18:28;20.83;;;10.23;;
73487;SDS011;61721;42.206;25.320;2024-01-15T05:20:55;15.27;;;9.32;;
73487;SDS011;61721;42.206;25.320;2024-01-15T05:23:23;15.38;;;7.65;;
73487;SDS011;61721;42.206;25.320;2024-01-15T05:25:50;14.93;;;7.25;;
73487;SDS011;61721;42.206;25.320;2024-01-15T05:28:18;17.38;;;8.38;;
73487;SDS011;61721;42.206;25.320;2024-01-15T05:30:45;13.77;;;8.60;;
73487;SDS011;61721;42.206;25.320;2024-01-15T05:33:14;16.95;;;9.32;;
73487;SDS011;61721;42.206;25.320;2024-01-15T05:35:41;17.33;;;10.63;;
73487;SDS011;61721;42.206;25.320;2024-01-15T05:38:09;27.85;;;12.43;;
73487;SDS011;61721;42.206;25.320;2024-01-15T05:40:37;21.75;;;12.07;;
73487;SDS011;61721;42.206;25.320;2024-01-15T05:43:04;37.47;;;19.55;;
73487;SDS011;61721;42.206;25.320;2024-01-15T05:45:31;20.63;;;13.95;;
73487;SDS011;61721;42.206;25.320;2024-01-15T05:48:01;37.60;;;19.10;;
73487;SDS011;61721;42.206;25.320;2024-01-15T05:50:30;29.85;;;15.88;;
73487;SDS011;61721;42.206;25.320;2024-01-15T05:52:58;54.22;;;27.70;;
73487;SDS011;61721;42.206;25.320;2024-01-15T05:55:25;48.25;;;21.48;;
73487;SDS011;61721;42.206;25.320;2024-01-15T05:57:52;49.70;;;24.50;;
73487;SDS011;61721;42.206;25.320;2024-01-15T06:00:20;41.42;;;23.45;;
73487;SDS011;61721;42.206;25.320;2024-01-15T06:02:47;30.48;;;16.83;;
73487;SDS011;61721;42.206;25.320;2024-01-15T06:05:15;35.63;;;17.83;;
73487;SDS011;61721;42.206;25.320;2024-01-15T06:07:44;38.67;;;20.40;;
73487;SDS011;61721;42.206;25.320;2024-01-15T06:10:11;48.70;;;20.25;;
73487;SDS011;61721;42.206;25.320;2024-01-15T06:12:38;32.25;;;20.00;;
73487;SDS011;61721;42.206;25.320;2024-01-15T06:15:06;34.58;;;17.20;;
73487;SDS011;61721;42.206;25.320;2024-01-15T06:17:33;32.65;;;17.77;;
73487;SDS011;61721;42.206;25.320;2024-01-15T06:20:01;31.65;;;16.77;;
73487;SDS011;61721;42.206;25.320;2024-01-15T06:22:28;33.47;;;19.13;;
73487;SDS011;61721;42.206;25.320;2024-01-15T06:24:57;33.28;;;16.02;;
73487;SDS011;61721;42.206;25.320;2024-01-15T06:27:25;23.40;;;13.60;;
73487;SDS011;61721;42.206;25.320;2024-01-15T06:29:52;23.00;;;13.15;;
73487;SDS011;61721;42.206;25.320;2024-01-15T06:32:21;25.25;;;13.38;;
73487;SDS011;61721;42.206;25.320;2024-01-15T06:34:48;24.10;;;12.95;;
73487;SDS011;61721;42.206;25.320;2024-01-15T06:37:17;19.98;;;12.73;;
73487;SDS011;61721;42.206;25.320;2024-01-15T06:39:46;23.77;;;12.82;;
73487;SDS011;61721;42.206;25.320;2024-01-15T06:42:14;21.50;;;12.07;;
73487;SDS011;61721;42.206;25.320;2024-01-15T06:44:42;23.17;;;12.60;;
73487;SDS011;61721;42.206;25.320;2024-01-15T06:47:09;22.48;;;13.48;;
73487;SDS011;61721;42.206;25.320;2024-01-15T06:49:36;32.65;;;18.58;;
73487;SDS011;61721;42.206;25.320;2024-01-15T06:52:04;31.75;;;18.90;;
73487;SDS011;61721;42.206;25.320;2024-01-15T06:54:32;34.47;;;19.08;;
73487;SDS011;61721;42.206;25.320;2024-01-15T06:57:00;30.38;;;20.65;;
73487;SDS011;61721;42.206;25.320;2024-01-15T06:59:28;29.98;;;16.52;;
73487;SDS011;61721;42.206;25.320;2024-01-15T07:01:56;36.03;;;21.25;;
73487;SDS011;61721;42.206;25.320;2024-01-15T07:04:24;40.90;;;20.42;;
73487;SDS011;61721;42.206;25.320;2024-01-15T07:06:51;28.40;;;15.05;;
73487;SDS011;61721;42.206;25.320;2024-01-15T07:09:19;25.05;;;16.02;;
73487;SDS011;61721;42.206;25.320;2024-01-15T07:11:46;24.52;;;13.35;;
73487;SDS011;61721;42.206;25.320;2024-01-15T07:14:14;24.02;;;13.82;;
73487;SDS011;61721;42.206;25.320;2024-01-15T07:16:42;21.10;;;12.43;;
73487;SDS011;61721;42.206;25.320;2024-01-15T07:19:10;23.00;;;13.15;;
73487;SDS011;61721;42.206;25.320;2024-01-15T07:21:37;29.33;;;18.08;;
73487;SDS011;61721;42.206;25.320;2024-01-15T07:24:05;29.75;;;19.08;;
73487;SDS011;61721;42.206;25.320;2024-01-15T07:26:32;79.40;;;38.80;;
73487;SDS011;61721;42.206;25.320;2024-01-15T07:29:00;54.17;;;28.67;;
73487;SDS011;61721;42.206;25.320;2024-01-15T07:31:28;48.90;;;26.23;;
73487;SDS011;61721;42.206;25.320;2024-01-15T07:33:57;36.30;;;18.95;;
73487;SDS011;61721;42.206;25.320;2024-01-15T07:36:25;22.38;;;14.23;;
73487;SDS011;61721;42.206;25.320;2024-01-15T07:38:53;29.40;;;14.95;;
73487;SDS011;61721;42.206;25.320;2024-01-15T07:41:20;25.55;;;14.07;;
73487;SDS011;61721;42.206;25.320;2024-01-15T07:43:48;29.58;;;16.55;;
73487;SDS011;61721;42.206;25.320;2024-01-15T07:46:16;35.42;;;17.70;;
73487;SDS011;61721;42.206;25.320;2024-01-15T07:48:43;39.63;;;20.92;;
73487;SDS011;61721;42.206;25.320;2024-01-15T07:51:12;39.70;;;21.05;;
73487;SDS011;61721;42.206;25.320;2024-01-15T07:53:39;40.42;;;20.33;;
73487;SDS011;61721;42.206;25.320;2024-01-15T07:56:07;42.70;;;21.13;;
73487;SDS011;61721;42.206;25.320;2024-01-15T07:58:34;38.25;;;21.05;;
73487;SDS011;61721;42.206;25.320;2024-01-15T08:01:01;39.15;;;20.05;;
73487;SDS011;61721;42.206;25.320;2024-01-15T08:03:29;27.88;;;17.13;;
73487;SDS011;61721;42.206;25.320;2024-01-15T08:05:56;40.22;;;22.10;;
73487;SDS011;61721;42.206;25.320;2024-01-15T08:08:26;34.25;;;17.65;;
73487;SDS011;61721;42.206;25.320;2024-01-15T08:10:53;26.58;;;14.88;;
73487;SDS011;61721;42.206;25.320;2024-01-15T08:13:21;19.92;;;11.57;;
73487;SDS011;61721;42.206;25.320;2024-01-15T08:15:48;20.38;;;10.05;;
73487;SDS011;61721;42.206;25.320;2024-01-15T08:18:16;25.15;;;15.40;;
73487;SDS011;61721;42.206;25.320;2024-01-15T08:20:44;25.42;;;14.15;;
73487;SDS011;61721;42.206;25.320;2024-01-15T08:23:11;80.60;;;51.53;;
73487;SDS011;61721;42.206;25.320;2024-01-15T08:25:40;98.13;;;60.85;;
73487;SDS011;61721;42.206;25.320;2024-01-15T08:28:08;57.83;;;34.33;;
73487;SDS011;61721;42.206;25.320;2024-01-15T08:30:35;38.97;;;21.90;;
73487;SDS011;61721;42.206;25.320;2024-01-15T08:33:03;28.35;;;17.35;;
73487;SDS011;61721;42.206;25.320;2024-01-15T08:35:31;27.52;;;16.00;;
73487;SDS011;61721;42.206;25.320;2024-01-15T08:37:58;29.88;;;17.23;;
73487;SDS011;61721;42.206;25.320;2024-01-15T08:40:25;24.50;;;14.75;;
73487;SDS011;61721;42.206;25.320;2024-01-15T08:42:54;24.45;;;12.98;;
73487;SDS011;61721;42.206;25.320;2024-01-15T08:45:22;24.67;;;14.18;;
73487;SDS011;61721;42.206;25.320;2024-01-15T08:47:51;21.13;;;12.35;;
73487;SDS011;61721;42.206;25.320;2024-01-15T08:50:19;19.80;;;11.52;;
73487;SDS011;61721;42.206;25.320;2024-01-15T08:52:46;21.83;;;12.15;;
73487;SDS011;61721;42.206;25.320;2024-01-15T08:55:13;18.42;;;11.43;;
73487;SDS011;61721;42.206;25.320;2024-01-15T08:57:40;19.60;;;10.88;;
73487;SDS011;61721;42.206;25.320;2024-01-15T09:00:10;16.00;;;8.90;;
73487;SDS011;61721;42.206;25.320;2024-01-15T09:02:38;16.17;;;10.95;;
73487;SDS011;61721;42.206;25.320;2024-01-15T09:05:06;20.63;;;10.15;;
73487;SDS011;61721;42.206;25.320;2024-01-15T09:07:34;21.13;;;11.13;;
73487;SDS011;61721;42.206;25.320;2024-01-15T09:10:01;22.90;;;12.18;;
73487;SDS011;61721;42.206;25.320;2024-01-15T09:12:28;21.05;;;11.82;;
73487;SDS011;61721;42.206;25.320;2024-01-15T09:14:56;22.75;;;14.35;;
73487;SDS011;61721;42.206;25.320;2024-01-15T09:17:24;22.13;;;12.25;;
73487;SDS011;61721;42.206;25.320;2024-01-15T09:19:53;21.08;;;13.50;;
73487;SDS011;61721;42.206;25.320;2024-01-15T09:22:21;20.25;;;10.60;;
73487;SDS011;61721;42.206;25.320;2024-01-15T09:24:48;21.73;;;13.20;;
73487;SDS011;61721;42.206;25.320;2024-01-15T09:27:16;18.63;;;12.20;;
73487;SDS011;61721;42.206;25.320;2024-01-15T09:29:43;22.13;;;11.40;;
73487;SDS011;61721;42.206;25.320;2024-01-15T09:32:11;23.17;;;14.98;;
73487;SDS011;61721;42.206;25.320;2024-01-15T09:34:40;24.92;;;14.05;;
73487;SDS011;61721;42.206;25.320;2024-01-15T09:37:07;21.15;;;14.65;;
73487;SDS011;61721;42.206;25.320;2024-01-15T09:39:35;23.50;;;13.70;;
73487;SDS011;61721;42.206;25.320;2024-01-15T09:42:02;27.20;;;16.23;;
73487;SDS011;61721;42.206;25.320;2024-01-15T09:44:31;25.25;;;16.35;;
73487;SDS011;61721;42.206;25.320;2024-01-15T09:47:05;22.60;;;14.50;;
73487;SDS011;61721;42.206;25.320;2024-01-15T09:49:33;25.35;;;14.13;;
73487;SDS011;61721;42.206;25.320;2024-01-15T09:52:02;28.88;;;16.08;;
73487;SDS011;61721;42.206;25.320;2024-01-15T09:54:30;24.73;;;14.32;;
73487;SDS011;61721;42.206;25.320;2024-01-15T09:56:57;25.40;;;13.77;;
73487;SDS011;61721;42.206;25.320;2024-01-15T09:59:25;25.23;;;14.02;;
73487;SDS011;61721;42.206;25.320;2024-01-15T10:01:54;26.25;;;16.13;;
73487;SDS011;61721;42.206;25.320;2024-01-15T10:04:24;31.65;;;19.33;;
73487;SDS011;61721;42.206;25.320;2024-01-15T10:06:51;29.42;;;17.27;;
73487;SDS011;61721;42.206;25.320;2024-01-15T10:09:20;28.20;;;16.80;;
73487;SDS011;61721;42.206;25.320;2024-01-15T10:11:48;28.15;;;17.55;;
73487;SDS011;61721;42.206;25.320;2024-01-15T10:14:15;30.00;;;17.45;;
73487;SDS011;61721;42.206;25.320;2024-01-15T10:16:43;31.63;;;18.75;;
73487;SDS011;61721;42.206;25.320;2024-01-15T10:19:10;34.65;;;17.50;;
73487;SDS011;61721;42.206;25.320;2024-01-15T10:21:38;40.08;;;22.50;;
73487;SDS011;61721;42.206;25.320;2024-01-15T10:24:08;32.50;;;19.73;;
73487;SDS011;61721;42.206;25.320;2024-01-15T10:29:04;28.15;;;15.90;;
73487;SDS011;61721;42.206;25.320;2024-01-15T10:31:31;32.63;;;16.48;;
73487;SDS011;61721;42.206;25.320;2024-01-15T10:34:09;33.38;;;18.00;;
73487;SDS011;61721;42.206;25.320;2024-01-15T10:36:41;29.70;;;17.60;;
73487;SDS011;61721;42.206;25.320;2024-01-15T10:39:13;31.80;;;20.33;;
73487;SDS011;61721;42.206;25.320;2024-01-15T10:41:42;34.17;;;20.13;;
73487;SDS011;61721;42.206;25.320;2024-01-15T10:44:10;37.58;;;19.33;;
73487;SDS011;61721;42.206;25.320;2024-01-15T10:46:37;29.83;;;16.85;;
73487;SDS011;61721;42.206;25.320;2024-01-15T10:49:06;27.27;;;16.08;;
73487;SDS011;61721;42.206;25.320;2024-01-15T10:51:34;23.73;;;14.00;;
73487;SDS011;61721;42.206;25.320;2024-01-15T10:54:01;25.30;;;13.82;;
73487;SDS011;61721;42.206;25.320;2024-01-15T10:56:31;23.30;;;14.23;;
73487;SDS011;61721;42.206;25.320;2024-01-15T10:59:01;25.15;;;14.88;;
73487;SDS011;61721;42.206;25.320;2024-01-15T11:01:30;24.27;;;14.70;;
73487;SDS011;61721;42.206;25.320;2024-01-15T11:04:05;29.25;;;17.30;;
73487;SDS011;61721;42.206;25.320;2024-01-15T11:06:41;24.40;;;15.00;;
73487;SDS011;61721;42.206;25.320;2024-01-15T11:09:09;28.55;;;14.55;;
73487;SDS011;61721;42.206;25.320;2024-01-15T11:11:40;26.98;;;15.07;;
73487;SDS011;61721;42.206;25.320;2024-01-15T11:14:10;29.52;;;16.02;;
73487;SDS011;61721;42.206;25.320;2024-01-15T11:16:53;26.08;;;14.82;;
73487;SDS011;61721;42.206;25.320;2024-01-15T11:19:24;24.67;;;15.80;;
73487;SDS011;61721;42.206;25.320;2024-01-15T11:21:52;25.77;;;15.77;;
73487;SDS011;61721;42.206;25.320;2024-01-15T11:24:34;25.08;;;15.77;;
73487;SDS011;61721;42.206;25.320;2024-01-15T11:27:02;26.77;;;15.35;;
73487;SDS011;61721;42.206;25.320;2024-01-15T11:29:32;28.60;;;17.13;;
73487;SDS011;61721;42.206;25.320;2024-01-15T11:32:04;29.02;;;16.58;;
73487;SDS011;61721;42.206;25.320;2024-01-15T11:34:52;27.27;;;15.27;;
73487;SDS011;61721;42.206;25.320;2024-01-15T11:37:27;27.88;;;15.13;;
73487;SDS011;61721;42.206;25.320;2024-01-15T11:39:55;26.50;;;15.98;;
73487;SDS011;61721;42.206;25.320;2024-01-15T11:42:29;29.77;;;16.70;;
73487;SDS011;61721;42.206;25.320;2024-01-15T11:44:58;24.52;;;15.30;;
73487;SDS011;61721;42.206;25.320;2024-01-15T11:47:44;26.40;;;15.73;;
73487;SDS011;61721;42.206;25.320;2024-01-15T11:50:36;27.45;;;15.55;;
73487;SDS011;61721;42.206;25.320;2024-01-15T11:53:10;28.75;;;17.58;;
73487;SDS011;61721;42.206;25.320;2024-01-15T11:55:43;33.90;;;19.65;;
73487;SDS011;61721;42.206;25.320;2024-01-15T11:58:13;28.50;;;16.73;;
73487;SDS011;61721;42.206;25.320;2024-01-15T12:00:44;23.70;;;15.40;;
73487;SDS011;61721;42.206;25.320;2024-01-15T12:03:15;27.92;;;18.88;;
73487;SDS011;61721;42.206;25.320;2024-01-15T12:05:42;30.58;;;16.98;;
73487;SDS011;61721;42.206;25.320;2024-01-15T12:08:09;25.40;;;16.75;;
73487;SDS011;61721;42.206;25.320;2024-01-15T12:10:37;25.85;;;18.63;;
73487;SDS011;61721;42.206;25.320;2024-01-15T12:13:08;28.35;;;18.27;;
73487;SDS011;61721;42.206;25.320;2024-01-15T12:15:38;24.35;;;16.95;;
73487;SDS011;61721;42.206;25.320;2024-01-15T12:18:08;25.95;;;16.58;;
73487;SDS011;61721;42.206;25.320;2024-01-15T12:20:37;26.95;;;17.58;;
73487;SDS011;61721;42.206;25.320;2024-01-15T12:23:05;28.60;;;17.05;;
73487;SDS011;61721;42.206;25.320;2024-01-15T12:25:32;25.15;;;16.05;;
73487;SDS011;61721;42.206;25.320;2024-01-15T12:28:01;29.27;;;16.88;;
73487;SDS011;61721;42.206;25.320;2024-01-15T12:30:28;25.45;;;16.77;;
73487;SDS011;61721;42.206;25.320;2024-01-15T12:32:56;32.00;;;20.83;;
73487;SDS011;61721;42.206;25.320;2024-01-15T12:35:25;37.30;;;23.25;;
73487;SDS011;61721;42.206;25.320;2024-01-15T12:37:53;31.80;;;20.35;;
73487;SDS011;61721;42.206;25.320;2024-01-15T12:40:22;29.27;;;17.95;;
73487;SDS011;61721;42.206;25.320;2024-01-15T12:42:51;30.67;;;19.58;;
73487;SDS011;61721;42.206;25.320;2024-01-15T12:45:18;33.80;;;17.67;;
73487;SDS011;61721;42.206;25.320;2024-01-15T12:47:45;27.27;;;17.45;;
73487;SDS011;61721;42.206;25.320;2024-01-15T12:50:13;25.25;;;15.95;;
73487;SDS011;61721;42.206;25.320;2024-01-15T12:52:42;28.50;;;17.48;;
73487;SDS011;61721;42.206;25.320;2024-01-15T12:55:10;26.63;;;15.95;;
73487;SDS011;61721;42.206;25.320;2024-01-15T12:57:37;29.83;;;17.17;;
73487;SDS011;61721;42.206;25.320;2024-01-15T13:00:05;29.77;;;18.20;;
73487;SDS011;61721;42.206;25.320;2024-01-15T13:02:37;30.90;;;18.90;;
73487;SDS011;61721;42.206;25.320;2024-01-15T13:05:07;41.65;;;23.50;;
73487;SDS011;61721;42.206;25.320;2024-01-15T13:07:36;28.55;;;16.33;;
73487;SDS011;61721;42.206;25.320;2024-01-15T13:10:05;23.67;;;14.75;;
73487;SDS011;61721;42.206;25.320;2024-01-15T13:12:34;20.65;;;13.15;;
73487;SDS011;61721;42.206;25.320;2024-01-15T13:15:02;20.02;;;12.00;;
73487;SDS011;61721;42.206;25.320;2024-01-15T13:17:30;29.23;;;15.27;;
73487;SDS011;61721;42.206;25.320;2024-01-15T13:19:57;27.58;;;16.35;;
73487;SDS011;61721;42.206;25.320;2024-01-15T13:22:24;26.35;;;15.13;;
73487;SDS011;61721;42.206;25.320;2024-01-15T13:24:57;31.55;;;13.88;;
73487;SDS011;61721;42.206;25.320;2024-01-15T13:27:26;31.02;;;14.80;;
73487;SDS011;61721;42.206;25.320;2024-01-15T13:29:53;28.50;;;15.32;;
73487;SDS011;61721;42.206;25.320;2024-01-15T13:32:22;24.15;;;14.15;;
73487;SDS011;61721;42.206;25.320;2024-01-15T13:34:52;26.08;;;13.93;;
73487;SDS011;61721;42.206;25.320;2024-01-15T13:37:19;22.40;;;12.65;;
73487;SDS011;61721;42.206;25.320;2024-01-15T13:39:47;25.95;;;14.57;;
73487;SDS011;61721;42.206;25.320;2024-01-15T13:42:14;23.15;;;13.80;;
73487;SDS011;61721;42.206;25.320;2024-01-15T13:44:43;22.27;;;12.50;;
73487;SDS011;61721;42.206;25.320;2024-01-15T13:47:10;21.88;;;12.50;;
73487;SDS011;61721;42.206;25.320;2024-01-15T13:49:38;21.20;;;13.13;;
73487;SDS011;61721;42.206;25.320;2024-01-15T13:52:06;20.60;;;12.18;;
73487;SDS011;61721;42.206;25.320;2024-01-15T13:54:33;20.60;;;12.15;;
73487;SDS011;61721;42.206;25.320;2024-01-15T13:57:01;20.30;;;10.95;;
73487;SDS011;61721;42.206;25.320;2024-01-15T13:59:28;25.17;;;12.85;;
73487;SDS011;61721;42.206;25.320;2024-01-15T14:01:59;24.85;;;12.70;;
73487;SDS011;61721;42.206;25.320;2024-01-15T14:04:27;24.27;;;13.80;;
73487;SDS011;61721;42.206;25.320;2024-01-15T14:06:55;24.20;;;12.52;;
73487;SDS011;61721;42.206;25.320;2024-01-15T14:09:22;29.13;;;14.75;;
73487;SDS011;61721;42.206;25.320;2024-01-15T14:11:50;27.85;;;14.85;;
73487;SDS011;61721;42.206;25.320;2024-01-15T14:14:18;24.70;;;13.77;;
73487;SDS011;61721;42.206;25.320;2024-01-15T14:16:46;26.65;;;13.73;;
73487;SDS011;61721;42.206;25.320;2024-01-15T14:19:15;24.60;;;12.85;;
73487;SDS011;61721;42.206;25.320;2024-01-15T14:21:43;22.98;;;13.80;;